sensor_id;sensor_type;location;lat;lon;timestamp;P1;durP1;ratioP1;P2;durP2;ratioP2
21681;SDS011;11002;48.256;10.084;2024-03-02T00:00:30;10.02;;;6.97;;
21681;SDS011;11002;48.256;10.084;2024-03-02T00:02:57;9.45;;;5.75;;
21681;SDS011;11002;48.256;10.084;2024-03-02T00:05:25;10.85;;;6.60;;
21681;SDS011;11002;48.256;10.084;2024-03-02T00:07:52;8.45;;;5.63;;
21681;SDS011;11002;48.256;10.084;2024-03-02T00:10:24;12.95;;;6.20;;
21681;SDS011;11002;48.256;10.084;2024-03-02T00:12:54;10.93;;;6.35;;
21681;SDS011;11002;48.256;10.084;2024-03-02T00:15:33;8.52;;;5.55;;
21681;SDS011;11002;48.256;10.084;2024-03-02T00:18:10;9.05;;;5.07;;
21681;SDS011;11002;48.256;10.084;2024-03-02T00:20:39;9.85;;;5.50;;
21681;SDS011;11002;48.256;10.084;2024-03-02T00:23:07;20.48;;;9.95;;
21681;SDS011;11002;48.256;10.084;2024-03-02T00:25:40;25.23;;;13.80;;
21681;SDS011;11002;48.256;10.084;2024-03-02T00:28:13;19.70;;;9.73;;
21681;SDS011;11002;48.256;10.084;2024-03-02T00:33:31;13.68;;;8.23;;
21681;SDS011;11002;48.256;10.084;2024-03-02T00:35:59;9.40;;;6.47;;
21681;SDS011;11002;48.256;10.084;2024-03-02T00:38:28;11.57;;;6.47;;
21681;SDS011;11002;48.256;10.084;2024-03-02T00:40:57;8.13;;;5.80;;
21681;SDS011;11002;48.256;10.084;2024-03-02T00:43:38;9.10;;;6.05;;
21681;SDS011;11002;48.256;10.084;2024-03-02T00:46:09;8.17;;;5.77;;
21681;SDS011;11002;48.256;10.084;2024-03-02T00:48:38;11.10;;;5.70;;
21681;SDS011;11002;48.256;10.084;2024-03-02T00:51:08;8.40;;;4.90;;
21681;SDS011;11002;48.256;10.084;2024-03-02T00:53:35;10.30;;;6.47;;
21681;SDS011;11002;48.256;10.084;2024-03-02T00:56:05;11.57;;;5.25;;
21681;SDS011;11002;48.256;10.084;2024-03-02T00:58:37;8.37;;;5.60;;
21681;SDS011;11002;48.256;10.084;2024-03-02T01:01:04;7.95;;;5.75;;
21681;SDS011;11002;48.256;10.084;2024-03-02T01:03:32;8.05;;;6.03;;
21681;SDS011;11002;48.256;10.084;2024-03-02T01:05:59;9.45;;;6.47;;
21681;SDS011;11002;48.256;10.084;2024-03-02T01:08:27;9.23;;;6.40;;
21681;SDS011;11002;48.256;10.084;2024-03-02T01:10:54;10.02;;;5.93;;
21681;SDS011;11002;48.256;10.084;2024-03-02T01:13:23;7.93;;;5.00;;
21681;SDS011;11002;48.256;10.084;2024-03-02T01:15:51;6.68;;;4.80;;
21681;SDS011;11002;48.256;10.084;2024-03-02T01:18:18;7.00;;;5.07;;
21681;SDS011;11002;48.256;10.084;2024-03-02T01:20:46;7.32;;;4.75;;
21681;SDS011;11002;48.256;10.084;2024-03-02T01:23:13;6.85;;;5.03;;
21681;SDS011;11002;48.256;10.084;2024-03-02T01:25:40;6.50;;;4.55;;
21681;SDS011;11002;48.256;10.084;2024-03-02T01:28:07;6.85;;;4.75;;
21681;SDS011;11002;48.256;10.084;2024-03-02T01:30:36;7.68;;;5.07;;
21681;SDS011;11002;48.256;10.084;2024-03-02T01:33:06;10.65;;;5.93;;
21681;SDS011;11002;48.256;10.084;2024-03-02T01:35:33;9.25;;;5.38;;
21681;SDS011;11002;48.256;10.084;2024-03-02T01:38:01;8.88;;;5.28;;
21681;SDS011;11002;48.256;10.084;2024-03-02T01:40:30;9.00;;;5.40;;
21681;SDS011;11002;48.256;10.084;2024-03-02T01:42:57;7.22;;;4.90;;
21681;SDS011;11002;48.256;10.084;2024-03-02T01:45:25;6.38;;;4.28;;
21681;SDS011;11002;48.256;10.084;2024-03-02T01:47:53;8.15;;;4.60;;
21681;SDS011;11002;48.256;10.084;2024-03-02T01:50:24;7.97;;;5.55;;
21681;SDS011;11002;48.256;10.084;2024-03-02T01:52:53;7.03;;;5.35;;
21681;SDS011;11002;48.256;10.084;2024-03-02T01:55:20;8.10;;;4.65;;
21681;SDS011;11002;48.256;10.084;2024-03-02T01:57:47;7.85;;;4.85;;
21681;SDS011;11002;48.256;10.084;2024-03-02T02:00:16;9.38;;;5.70;;
21681;SDS011;11002;48.256;10.084;2024-03-02T02:02:44;10.70;;;5.57;;
21681;SDS011;11002;48.256;10.084;2024-03-02T02:05:13;7.57;;;5.25;;
21681;SDS011;11002;48.256;10.084;2024-03-02T02:07:40;8.93;;;5.85;;
21681;SDS011;11002;48.256;10.084;2024-03-02T02:10:08;11.43;;;5.80;;
21681;SDS011;11002;48.256;10.084;2024-03-02T02:12:36;7.97;;;5.38;;
21681;SDS011;11002;48.256;10.084;2024-03-02T02:15:04;8.68;;;5.57;;
21681;SDS011;11002;48.256;10.084;2024-03-02T02:17:46;6.63;;;4.50;;
21681;SDS011;11002;48.256;10.084;2024-03-02T02:20:15;6.32;;;4.38;;
21681;SDS011;11002;48.256;10.084;2024-03-02T02:22:53;8.85;;;5.30;;
21681;SDS011;11002;48.256;10.084;2024-03-02T02:25:24;42.42;;;5.75;;
21681;SDS011;11002;48.256;10.084;2024-03-02T02:27:52;6.45;;;4.53;;
21681;SDS011;11002;48.256;10.084;2024-03-02T02:30:20;5.90;;;4.55;;
21681;SDS011;11002;48.256;10.084;2024-03-02T02:32:47;6.45;;;4.75;;
21681;SDS011;11002;48.256;10.084;2024-03-02T02:35:15;8.27;;;5.53;;
21681;SDS011;11002;48.256;10.084;2024-03-02T02:37:42;7.97;;;5.70;;
21681;SDS011;11002;48.256;10.084;2024-03-02T02:40:12;8.85;;;4.57;;
21681;SDS011;11002;48.256;10.084;2024-03-02T02:42:39;9.98;;;6.07;;
21681;SDS011;11002;48.256;10.084;2024-03-02T02:45:07;10.07;;;5.97;;
21681;SDS011;11002;48.256;10.084;2024-03-02T02:47:34;9.75;;;6.25;;
21681;SDS011;11002;48.256;10.084;2024-03-02T02:50:02;7.68;;;5.68;;
21681;SDS011;11002;48.256;10.084;2024-03-02T02:52:32;9.02;;;5.57;;
21681;SDS011;11002;48.256;10.084;2024-03-02T02:55:03;8.27;;;5.13;;
21681;SDS011;11002;48.256;10.084;2024-03-02T02:57:32;6.53;;;5.07;;
21681;SDS011;11002;48.256;10.084;2024-03-02T03:00:03;5.80;;;4.18;;
21681;SDS011;11002;48.256;10.084;2024-03-02T03:02:36;6.05;;;4.60;;
21681;SDS011;11002;48.256;10.084;2024-03-02T03:05:04;8.02;;;4.53;;
21681;SDS011;11002;48.256;10.084;2024-03-02T03:07:32;7.70;;;4.55;;
21681;SDS011;11002;48.256;10.084;2024-03-02T03:09:59;7.60;;;5.25;;
21681;SDS011;11002;48.256;10.084;2024-03-02T03:12:27;11.30;;;5.53;;
21681;SDS011;11002;48.256;10.084;2024-03-02T03:14:55;7.85;;;4.75;;
21681;SDS011;11002;48.256;10.084;2024-03-02T03:17:23;6.78;;;4.30;;
21681;SDS011;11002;48.256;10.084;2024-03-02T03:19:50;6.90;;;5.22;;
21681;SDS011;11002;48.256;10.084;2024-03-02T03:22:17;6.72;;;4.65;;
21681;SDS011;11002;48.256;10.084;2024-03-02T03:24:45;10.55;;;5.30;;
21681;SDS011;11002;48.256;10.084;2024-03-02T03:27:12;6.97;;;5.35;;
21681;SDS011;11002;48.256;10.084;2024-03-02T03:29:39;8.32;;;5.30;;
21681;SDS011;11002;48.256;10.084;2024-03-02T03:32:08;8.20;;;5.35;;
21681;SDS011;11002;48.256;10.084;2024-03-02T03:34:35;9.52;;;5.88;;
21681;SDS011;11002;48.256;10.084;2024-03-02T03:37:03;8.75;;;6.38;;
21681;SDS011;11002;48.256;10.084;2024-03-02T03:39:30;11.50;;;6.13;;
21681;SDS011;11002;48.256;10.084;2024-03-02T03:41:57;9.25;;;6.32;;
21681;SDS011;11002;48.256;10.084;2024-03-02T03:44:25;10.63;;;6.85;;
21681;SDS011;11002;48.256;10.084;2024-03-02T03:46:52;9.18;;;6.45;;
21681;SDS011;11002;48.256;10.084;2024-03-02T03:49:20;8.38;;;5.97;;
21681;SDS011;11002;48.256;10.084;2024-03-02T03:51:48;10.73;;;6.72;;
21681;SDS011;11002;48.256;10.084;2024-03-02T03:54:15;11.27;;;7.25;;
21681;SDS011;11002;48.256;10.084;2024-03-02T03:56:42;11.68;;;6.38;;
21681;SDS011;11002;48.256;10.084;2024-03-02T03:59:09;10.10;;;6.28;;
21681;SDS011;11002;48.256;10.084;2024-03-02T04:01:37;8.98;;;6.57;;
21681;SDS011;11002;48.256;10.084;2024-03-02T04:04:04;11.20;;;6.88;;
21681;SDS011;11002;48.256;10.084;2024-03-02T04:06:33;12.45;;;7.05;;
21681;SDS011;11002;48.256;10.084;2024-03-02T04:09:01;11.55;;;6.93;;
21681;SDS011;11002;48.256;10.084;2024-03-02T04:11:29;7.45;;;5.78;;
21681;SDS011;11002;48.256;10.084;2024-03-02T04:13:57;10.45;;;7.07;;
21681;SDS011;11002;48.256;10.084;2024-03-02T04:16:24;9.57;;;6.53;;
21681;SDS011;11002;48.256;10.084;2024-03-02T04:18:51;9.88;;;6.18;;
21681;SDS011;11002;48.256;10.084;2024-03-02T04:21:19;10.75;;;6.60;;
21681;SDS011;11002;48.256;10.084;2024-03-02T04:23:47;10.75;;;6.15;;
21681;SDS011;11002;48.256;10.084;2024-03-02T04:26:14;8.30;;;5.65;;
21681;SDS011;11002;48.256;10.084;2024-03-02T04:28:47;12.13;;;6.45;;
21681;SDS011;11002;48.256;10.084;2024-03-02T04:31:15;11.15;;;7.03;;
21681;SDS011;11002;48.256;10.084;2024-03-02T04:33:42;13.13;;;7.28;;
21681;SDS011;11002;48.256;10.084;2024-03-02T04:36:09;12.60;;;6.88;;
21681;SDS011;11002;48.256;10.084;2024-03-02T04:38:37;11.30;;;7.18;;
21681;SDS011;11002;48.256;10.084;2024-03-02T04:41:06;9.65;;;6.72;;
21681;SDS011;11002;48.256;10.084;2024-03-02T04:43:34;14.05;;;7.35;;
21681;SDS011;11002;48.256;10.084;2024-03-02T04:46:01;8.98;;;5.55;;
21681;SDS011;11002;48.256;10.084;2024-03-02T04:48:28;12.77;;;6.07;;
21681;SDS011;11002;48.256;10.084;2024-03-02T04:50:56;7.53;;;6.03;;
21681;SDS011;11002;48.256;10.084;2024-03-02T04:53:23;9.25;;;5.75;;
21681;SDS011;11002;48.256;10.084;2024-03-02T04:55:50;8.48;;;5.82;;
21681;SDS011;11002;48.256;10.084;2024-03-02T04:58:36;10.82;;;5.78;;
21681;SDS011;11002;48.256;10.084;2024-03-02T05:01:04;8.23;;;5.88;;
21681;SDS011;11002;48.256;10.084;2024-03-02T05:03:31;6.72;;;5.22;;
21681;SDS011;11002;48.256;10.084;2024-03-02T05:06:00;8.30;;;5.20;;
21681;SDS011;11002;48.256;10.084;2024-03-02T05:08:27;7.10;;;4.75;;
21681;SDS011;11002;48.256;10.084;2024-03-02T05:10:55;6.57;;;5.22;;
21681;SDS011;11002;48.256;10.084;2024-03-02T05:13:44;6.28;;;4.65;;
21681;SDS011;11002;48.256;10.084;2024-03-02T05:16:12;7.15;;;4.57;;
21681;SDS011;11002;48.256;10.084;2024-03-02T05:18:39;8.45;;;4.80;;
21681;SDS011;11002;48.256;10.084;2024-03-02T05:21:06;5.72;;;4.38;;
21681;SDS011;11002;48.256;10.084;2024-03-02T05:23:33;7.22;;;4.70;;
21681;SDS011;11002;48.256;10.084;2024-03-02T05:26:01;6.05;;;4.60;;
21681;SDS011;11002;48.256;10.084;2024-03-02T05:28:28;8.65;;;5.05;;
21681;SDS011;11002;48.256;10.084;2024-03-02T05:30:56;7.78;;;5.32;;
21681;SDS011;11002;48.256;10.084;2024-03-02T05:33:24;7.43;;;4.68;;
21681;SDS011;11002;48.256;10.084;2024-03-02T05:35:51;6.65;;;4.72;;
21681;SDS011;11002;48.256;10.084;2024-03-02T05:38:19;7.55;;;4.88;;
21681;SDS011;11002;48.256;10.084;2024-03-02T05:40:47;5.90;;;4.32;;
21681;SDS011;11002;48.256;10.084;2024-03-02T05:43:14;6.72;;;4.93;;
21681;SDS011;11002;48.256;10.084;2024-03-02T05:45:41;6.03;;;4.55;;
21681;SDS011;11002;48.256;10.084;2024-03-02T05:48:10;7.25;;;5.20;;
21681;SDS011;11002;48.256;10.084;2024-03-02T05:50:38;7.47;;;4.68;;
21681;SDS011;11002;48.256;10.084;2024-03-02T05:53:05;5.50;;;4.15;;
21681;SDS011;11002;48.256;10.084;2024-03-02T05:55:32;5.65;;;4.32;;
21681;SDS011;11002;48.256;10.084;2024-03-02T05:58:00;6.10;;;4.45;;
21681;SDS011;11002;48.256;10.084;2024-03-02T06:00:42;6.15;;;3.88;;
21681;SDS011;11002;48.256;10.084;2024-03-02T06:03:11;5.28;;;4.07;;
21681;SDS011;11002;48.256;10.084;2024-03-02T06:05:38;7.57;;;4.57;;
21681;SDS011;11002;48.256;10.084;2024-03-02T06:08:06;5.72;;;4.00;;
21681;SDS011;11002;48.256;10.084;2024-03-02T06:10:33;5.70;;;4.03;;
21681;SDS011;11002;48.256;10.084;2024-03-02T06:13:01;6.53;;;3.80;;
21681;SDS011;11002;48.256;10.084;2024-03-02T06:15:28;5.38;;;3.72;;
21681;SDS011;11002;48.256;10.084;2024-03-02T06:17:55;8.98;;;4.97;;
21681;SDS011;11002;48.256;10.084;2024-03-02T06:20:24;11.38;;;6.32;;
21681;SDS011;11002;48.256;10.084;2024-03-02T06:22:52;9.50;;;5.68;;
21681;SDS011;11002;48.256;10.084;2024-03-02T06:25:19;9.98;;;5.40;;
21681;SDS011;11002;48.256;10.084;2024-03-02T06:27:47;9.07;;;4.90;;
21681;SDS011;11002;48.256;10.084;2024-03-02T06:30:14;9.43;;;5.65;;
21681;SDS011;11002;48.256;10.084;2024-03-02T06:32:41;7.10;;;5.15;;
21681;SDS011;11002;48.256;10.084;2024-03-02T06:35:09;8.02;;;5.40;;
21681;SDS011;11002;48.256;10.084;2024-03-02T06:37:39;8.25;;;5.95;;
21681;SDS011;11002;48.256;10.084;2024-03-02T06:40:07;7.32;;;5.80;;
21681;SDS011;11002;48.256;10.084;2024-03-02T06:42:34;9.48;;;6.32;;
21681;SDS011;11002;48.256;10.084;2024-03-02T06:45:02;9.77;;;7.40;;
21681;SDS011;11002;48.256;10.084;2024-03-02T06:47:30;6.53;;;4.95;;
21681;SDS011;11002;48.256;10.084;2024-03-02T06:49:58;7.57;;;6.00;;
21681;SDS011;11002;48.256;10.084;2024-03-02T06:52:25;10.82;;;6.57;;
21681;SDS011;11002;48.256;10.084;2024-03-02T06:54:53;8.48;;;6.43;;
21681;SDS011;11002;48.256;10.084;2024-03-02T06:57:21;7.45;;;5.75;;
21681;SDS011;11002;48.256;10.084;2024-03-02T06:59:49;12.23;;;6.80;;
21681;SDS011;11002;48.256;10.084;2024-03-02T07:02:19;7.55;;;5.25;;
21681;SDS011;11002;48.256;10.084;2024-03-02T07:04:48;6.72;;;5.03;;
21681;SDS011;11002;48.256;10.084;2024-03-02T07:07:16;7.95;;;5.78;;
21681;SDS011;11002;48.256;10.084;2024-03-02T07:09:43;10.50;;;6.30;;
21681;SDS011;11002;48.256;10.084;2024-03-02T07:12:12;7.70;;;5.78;;
21681;SDS011;11002;48.256;10.084;2024-03-02T07:14:39;10.15;;;6.95;;
21681;SDS011;11002;48.256;10.084;2024-03-02T07:17:36;9.50;;;5.60;;
21681;SDS011;11002;48.256;10.084;2024-03-02T07:20:04;9.13;;;6.30;;
21681;SDS011;11002;48.256;10.084;2024-03-02T07:22:32;10.48;;;6.40;;
21681;SDS011;11002;48.256;10.084;2024-03-02T07:25:00;6.78;;;5.55;;
21681;SDS011;11002;48.256;10.084;2024-03-02T07:27:29;10.00;;;6.28;;
21681;SDS011;11002;48.256;10.084;2024-03-02T07:29:59;8.32;;;6.15;;
21681;SDS011;11002;48.256;10.084;2024-03-02T07:32:26;10.80;;;6.82;;
21681;SDS011;11002;48.256;10.084;2024-03-02T07:34:54;9.18;;;6.25;;
21681;SDS011;11002;48.256;10.084;2024-03-02T07:37:21;8.93;;;6.13;;
21681;SDS011;11002;48.256;10.084;2024-03-02T07:39:49;13.27;;;7.45;;
21681;SDS011;11002;48.256;10.084;2024-03-02T07:42:16;8.55;;;6.40;;
21681;SDS011;11002;48.256;10.084;2024-03-02T07:44:45;9.13;;;6.63;;
21681;SDS011;11002;48.256;10.084;2024-03-02T07:47:12;11.50;;;6.43;;
21681;SDS011;11002;48.256;10.084;2024-03-02T07:49:39;11.07;;;6.95;;
21681;SDS011;11002;48.256;10.084;2024-03-02T07:52:07;14.00;;;7.85;;
21681;SDS011;11002;48.256;10.084;2024-03-02T07:54:34;13.52;;;7.20;;
21681;SDS011;11002;48.256;10.084;2024-03-02T07:57:01;17.45;;;8.32;;
21681;SDS011;11002;48.256;10.084;2024-03-02T07:59:29;24.38;;;9.13;;
21681;SDS011;11002;48.256;10.084;2024-03-02T08:01:58;15.10;;;8.77;;
21681;SDS011;11002;48.256;10.084;2024-03-02T08:04:26;14.27;;;8.52;;
21681;SDS011;11002;48.256;10.084;2024-03-02T08:06:53;16.77;;;9.43;;
21681;SDS011;11002;48.256;10.084;2024-03-02T08:09:21;16.80;;;9.27;;
21681;SDS011;11002;48.256;10.084;2024-03-02T08:11:48;13.23;;;9.32;;
21681;SDS011;11002;48.256;10.084;2024-03-02T08:14:15;17.27;;;10.15;;
21681;SDS011;11002;48.256;10.084;2024-03-02T08:16:42;15.93;;;9.48;;
21681;SDS011;11002;48.256;10.084;2024-03-02T08:19:11;11.05;;;6.93;;
21681;SDS011;11002;48.256;10.084;2024-03-02T08:21:42;14.57;;;7.80;;
21681;SDS011;11002;48.256;10.084;2024-03-02T08:24:10;13.93;;;7.18;;
21681;SDS011;11002;48.256;10.084;2024-03-02T08:26:37;9.25;;;6.32;;
21681;SDS011;11002;48.256;10.084;2024-03-02T08:29:04;8.25;;;6.28;;
21681;SDS011;11002;48.256;10.084;2024-03-02T08:31:31;7.15;;;5.15;;
21681;SDS011;11002;48.256;10.084;2024-03-02T08:33:59;8.85;;;5.10;;
21681;SDS011;11002;48.256;10.084;2024-03-02T08:36:27;8.38;;;5.80;;
21681;SDS011;11002;48.256;10.084;2024-03-02T08:38:54;8.02;;;5.70;;
21681;SDS011;11002;48.256;10.084;2024-03-02T08:41:22;12.15;;;6.25;;
21681;SDS011;11002;48.256;10.084;2024-03-02T08:43:49;9.10;;;5.93;;
21681;SDS011;11002;48.256;10.084;2024-03-02T08:46:16;19.02;;;6.20;;
21681;SDS011;11002;48.256;10.084;2024-03-02T08:48:44;9.65;;;5.78;;
21681;SDS011;11002;48.256;10.084;2024-03-02T08:51:11;9.93;;;6.35;;
21681;SDS011;11002;48.256;10.084;2024-03-02T08:53:40;14.15;;;5.40;;
21681;SDS011;11002;48.256;10.084;2024-03-02T08:56:08;8.55;;;5.28;;
21681;SDS011;11002;48.256;10.084;2024-03-02T08:58:35;9.77;;;6.35;;
21681;SDS011;11002;48.256;10.084;2024-03-02T09:01:03;17.55;;;5.50;;
21681;SDS011;11002;48.256;10.084;2024-03-02T09:03:32;15.15;;;6.93;;
21681;SDS011;11002;48.256;10.084;2024-03-02T09:05:59;8.30;;;5.35;;
21681;SDS011;11002;48.256;10.084;2024-03-02T09:08:26;7.35;;;5.15;;
21681;SDS011;11002;48.256;10.084;2024-03-02T09:10:55;8.18;;;5.53;;
21681;SDS011;11002;48.256;10.084;2024-03-02T09:13:23;9.02;;;6.05;;
21681;SDS011;11002;48.256;10.084;2024-03-02T09:15:50;9.05;;;5.45;;
21681;SDS011;11002;48.256;10.084;2024-03-02T09:18:18;9.80;;;6.13;;
21681;SDS011;11002;48.256;10.084;2024-03-02T09:20:45;9.55;;;6.50;;
21681;SDS011;11002;48.256;10.084;2024-03-02T09:23:12;15.10;;;7.45;;
21681;SDS011;11002;48.256;10.084;2024-03-02T09:25:40;9.98;;;5.90;;
21681;SDS011;11002;48.256;10.084;2024-03-02T09:28:08;10.45;;;6.03;;
21681;SDS011;11002;48.256;10.084;2024-03-02T09:30:36;8.75;;;6.28;;
21681;SDS011;11002;48.256;10.084;2024-03-02T09:33:03;10.63;;;6.60;;
21681;SDS011;11002;48.256;10.084;2024-03-02T09:35:31;10.13;;;6.32;;
21681;SDS011;11002;48.256;10.084;2024-03-02T09:37:59;8.65;;;6.03;;
21681;SDS011;11002;48.256;10.084;2024-03-02T09:40:26;8.80;;;6.35;;
21681;SDS011;11002;48.256;10.084;2024-03-02T09:42:53;8.73;;;6.13;;
21681;SDS011;11002;48.256;10.084;2024-03-02T09:45:24;9.57;;;6.65;;
21681;SDS011;11002;48.256;10.084;2024-03-02T09:47:51;8.35;;;6.00;;
21681;SDS011;11002;48.256;10.084;2024-03-02T09:50:19;8.02;;;5.50;;
21681;SDS011;11002;48.256;10.084;2024-03-02T09:52:48;7.78;;;5.05;;
21681;SDS011;11002;48.256;10.084;2024-03-02T09:55:16;6.60;;;4.25;;
21681;SDS011;11002;48.256;10.084;2024-03-02T09:57:44;5.10;;;4.50;;
21681;SDS011;11002;48.256;10.084;2024-03-02T10:00:14;6.30;;;4.60;;
21681;SDS011;11002;48.256;10.084;2024-03-02T10:02:43;5.75;;;4.25;;
21681;SDS011;11002;48.256;10.084;2024-03-02T10:05:11;5.53;;;4.60;;
21681;SDS011;11002;48.256;10.084;2024-03-02T10:07:38;7.32;;;4.15;;
21681;SDS011;11002;48.256;10.084;2024-03-02T10:10:12;5.95;;;4.35;;
21681;SDS011;11002;48.256;10.084;2024-03-02T10:12:40;4.95;;;3.95;;
21681;SDS011;11002;48.256;10.084;2024-03-02T10:15:08;7.22;;;3.63;;
21681;SDS011;11002;48.256;10.084;2024-03-02T10:17:36;7.47;;;4.75;;
21681;SDS011;11002;48.256;10.084;2024-03-02T10:20:24;5.80;;;4.43;;
21681;SDS011;11002;48.256;10.084;2024-03-02T10:22:54;4.78;;;4.07;;
21681;SDS011;11002;48.256;10.084;2024-03-02T10:25:28;4.68;;;4.20;;
21681;SDS011;11002;48.256;10.084;2024-03-02T10:27:57;5.72;;;4.25;;
21681;SDS011;11002;48.256;10.084;2024-03-02T10:30:25;5.75;;;4.50;;
21681;SDS011;11002;48.256;10.084;2024-03-02T10:32:53;4.80;;;4.32;;
21681;SDS011;11002;48.256;10.084;2024-03-02T10:35:21;5.15;;;4.40;;
21681;SDS011;11002;48.256;10.084;2024-03-02T10:37:51;5.35;;;4.28;;
21681;SDS011;11002;48.256;10.084;2024-03-02T10:40:21;5.78;;;4.55;;
21681;SDS011;11002;48.256;10.084;2024-03-02T10:42:49;7.13;;;4.22;;
21681;SDS011;11002;48.256;10.084;2024-03-02T10:45:19;6.00;;;4.65;;
21681;SDS011;11002;48.256;10.084;2024-03-02T10:47:47;7.45;;;4.88;;
21681;SDS011;11002;48.256;10.084;2024-03-02T10:50:16;4.78;;;3.88;;
21681;SDS011;11002;48.256;10.084;2024-03-02T10:52:45;7.22;;;5.20;;
21681;SDS011;11002;48.256;10.084;2024-03-02T10:55:12;6.28;;;4.65;;
21681;SDS011;11002;48.256;10.084;2024-03-02T10:57:41;5.30;;;4.07;;
21681;SDS011;11002;48.256;10.084;2024-03-02T11:00:12;6.47;;;4.20;;
21681;SDS011;11002;48.256;10.084;2024-03-02T11:02:46;4.65;;;4.10;;
21681;SDS011;11002;48.256;10.084;2024-03-02T11:05:20;5.80;;;4.63;;
21681;SDS011;11002;48.256;10.084;2024-03-02T11:08:00;5.35;;;4.40;;
21681;SDS011;11002;48.256;10.084;2024-03-02T11:13:02;5.22;;;4.20;;
21681;SDS011;11002;48.256;10.084;2024-03-02T11:15:32;4.38;;;3.53;;
21681;SDS011;11002;48.256;10.084;2024-03-02T11:18:02;4.80;;;4.13;;
21681;SDS011;11002;48.256;10.084;2024-03-02T11:20:34;4.07;;;3.67;;
21681;SDS011;11002;48.256;10.084;2024-03-02T11:23:06;4.63;;;3.97;;
21681;SDS011;11002;48.256;10.084;2024-03-02T11:25:35;4.05;;;3.42;;
21681;SDS011;11002;48.256;10.084;2024-03-02T11:28:05;3.97;;;3.35;;
21681;SDS011;11002;48.256;10.084;2024-03-02T11:33:23;3.88;;;3.47;;
21681;SDS011;11002;48.256;10.084;2024-03-02T11:35:52;4.38;;;3.53;;
21681;SDS011;11002;48.256;10.084;2024-03-02T11:38:21;3.58;;;3.28;;
21681;SDS011;11002;48.256;10.084;2024-03-02T11:40:50;3.45;;;3.15;;
21681;SDS011;11002;48.256;10.084;2024-03-02T11:43:17;3.75;;;3.22;;
21681;SDS011;11002;48.256;10.084;2024-03-02T11:45:45;4.30;;;3.70;;
21681;SDS011;11002;48.256;10.084;2024-03-02T11:48:13;4.40;;;3.60;;
21681;SDS011;11002;48.256;10.084;2024-03-02T11:50:42;3.67;;;3.22;;
21681;SDS011;11002;48.256;10.084;2024-03-02T11:53:14;4.28;;;3.42;;
21681;SDS011;11002;48.256;10.084;2024-03-02T11:55:43;4.28;;;3.88;;
21681;SDS011;11002;48.256;10.084;2024-03-02T11:58:12;4.95;;;4.20;;
21681;SDS011;11002;48.256;10.084;2024-03-02T12:00:39;5.07;;;4.13;;
21681;SDS011;11002;48.256;10.084;2024-03-02T12:03:07;3.63;;;3.22;;
21681;SDS011;11002;48.256;10.084;2024-03-02T12:05:35;4.75;;;3.63;;
21681;SDS011;11002;48.256;10.084;2024-03-02T12:08:03;4.63;;;3.45;;
21681;SDS011;11002;48.256;10.084;2024-03-02T12:10:32;4.28;;;3.10;;
21681;SDS011;11002;48.256;10.084;2024-03-02T12:13:01;4.18;;;3.50;;
21681;SDS011;11002;48.256;10.084;2024-03-02T12:15:30;3.50;;;3.20;;
21681;SDS011;11002;48.256;10.084;2024-03-02T12:17:59;6.68;;;3.10;;
21681;SDS011;11002;48.256;10.084;2024-03-02T12:20:29;3.38;;;3.08;;
21681;SDS011;11002;48.256;10.084;2024-03-02T12:22:59;3.05;;;2.50;;
21681;SDS011;11002;48.256;10.084;2024-03-02T12:25:27;3.78;;;3.38;;
21681;SDS011;11002;48.256;10.084;2024-03-02T12:27:56;6.28;;;3.25;;
21681;SDS011;11002;48.256;10.084;2024-03-02T12:30:26;4.38;;;3.10;;
21681;SDS011;11002;48.256;10.084;2024-03-02T12:32:58;3.28;;;2.95;;
21681;SDS011;11002;48.256;10.084;2024-03-02T12:35:25;4.43;;;2.70;;
21681;SDS011;11002;48.256;10.084;2024-03-02T12:37:53;5.07;;;3.42;;
21681;SDS011;11002;48.256;10.084;2024-03-02T12:40:21;2.92;;;2.72;;
21681;SDS011;11002;48.256;10.084;2024-03-02T12:42:49;2.80;;;2.42;;
21681;SDS011;11002;48.256;10.084;2024-03-02T12:45:17;2.92;;;2.50;;
21681;SDS011;11002;48.256;10.084;2024-03-02T12:47:50;3.25;;;2.10;;
21681;SDS011;11002;48.256;10.084;2024-03-02T12:50:18;2.22;;;1.98;;
21681;SDS011;11002;48.256;10.084;2024-03-02T12:52:50;2.70;;;2.30;;
21681;SDS011;11002;48.256;10.084;2024-03-02T12:55:18;2.47;;;2.20;;
21681;SDS011;11002;48.256;10.084;2024-03-02T12:57:47;2.67;;;2.35;;
21681;SDS011;11002;48.256;10.084;2024-03-02T13:00:17;2.25;;;2.05;;
21681;SDS011;11002;48.256;10.084;2024-03-02T13:02:45;3.42;;;2.30;;
21681;SDS011;11002;48.256;10.084;2024-03-02T13:05:15;3.50;;;1.92;;
21681;SDS011;11002;48.256;10.084;2024-03-02T13:07:42;2.33;;;2.13;;
21681;SDS011;11002;48.256;10.084;2024-03-02T13:10:12;5.43;;;2.40;;
21681;SDS011;11002;48.256;10.084;2024-03-02T13:12:39;2.30;;;2.10;;
21681;SDS011;11002;48.256;10.084;2024-03-02T13:15:06;3.50;;;2.70;;
21681;SDS011;11002;48.256;10.084;2024-03-02T13:17:35;3.08;;;2.78;;
21681;SDS011;11002;48.256;10.084;2024-03-02T13:20:03;2.90;;;2.70;;
21681;SDS011;11002;48.256;10.084;2024-03-02T13:22:34;3.33;;;2.60;;
21681;SDS011;11002;48.256;10.084;2024-03-02T13:25:02;3.15;;;2.85;;
21681;SDS011;11002;48.256;10.084;2024-03-02T13:27:30;3.85;;;3.25;;
21681;SDS011;11002;48.256;10.084;2024-03-02T13:29:58;3.70;;;3.30;;
21681;SDS011;11002;48.256;10.084;2024-03-02T13:32:25;3.53;;;2.83;;
21681;SDS011;11002;48.256;10.084;2024-03-02T13:34:52;4.05;;;2.80;;
21681;SDS011;11002;48.256;10.084;2024-03-02T13:37:20;2.85;;;2.63;;
21681;SDS011;11002;48.256;10.084;2024-03-02T13:39:49;3.35;;;2.83;;
21681;SDS011;11002;48.256;10.084;2024-03-02T13:42:16;4.28;;;2.50;;
21681;SDS011;11002;48.256;10.084;2024-03-02T13:44:44;2.50;;;2.30;;
21681;SDS011;11002;48.256;10.084;2024-03-02T13:47:13;3.53;;;2.97;;
21681;SDS011;11002;48.256;10.084;2024-03-02T13:49:40;2.50;;;2.30;;
21681;SDS011;11002;48.256;10.084;2024-03-02T13:52:10;2.40;;;2.20;;
21681;SDS011;11002;48.256;10.084;2024-03-02T13:54:38;2.83;;;2.60;;
21681;SDS011;11002;48.256;10.084;2024-03-02T13:57:08;3.97;;;2.65;;
21681;SDS011;11002;48.256;10.084;2024-03-02T13:59:36;2.63;;;2.42;;
21681;SDS011;11002;48.256;10.084;2024-03-02T14:02:04;3.85;;;2.40;;
21681;SDS011;11002;48.256;10.084;2024-03-02T14:04:32;1.52;;;1.42;;
21681;SDS011;11002;48.256;10.084;2024-03-02T14:07:00;1.88;;;1.70;;
21681;SDS011;11002;48.256;10.084;2024-03-02T14:09:27;2.17;;;1.83;;
21681;SDS011;11002;48.256;10.084;2024-03-02T14:11:55;2.25;;;1.35;;
21681;SDS011;11002;48.256;10.084;2024-03-02T14:14:24;1.20;;;1.10;;
21681;SDS011;11002;48.256;10.084;2024-03-02T14:16:51;3.58;;;2.10;;
21681;SDS011;11002;48.256;10.084;2024-03-02T14:19:19;0.70;;;0.70;;
21681;SDS011;11002;48.256;10.084;2024-03-02T14:21:46;0.70;;;0.70;;
21681;SDS011;11002;48.256;10.084;2024-03-02T14:24:14;2.25;;;1.65;;
21681;SDS011;11002;48.256;10.084;2024-03-02T14:26:41;2.25;;;1.30;;
21681;SDS011;11002;48.256;10.084;2024-03-02T14:29:08;4.00;;;1.80;;
21681;SDS011;11002;48.256;10.084;2024-03-02T14:31:38;0.90;;;0.73;;
21681;SDS011;11002;48.256;10.084;2024-03-02T14:34:05;1.70;;;0.80;;
21681;SDS011;11002;48.256;10.084;2024-03-02T14:36:32;0.90;;;0.65;;
21681;SDS011;11002;48.256;10.084;2024-03-02T14:39:00;1.83;;;0.60;;
21681;SDS011;11002;48.256;10.084;2024-03-02T14:41:28;1.00;;;0.65;;
21681;SDS011;11002;48.256;10.084;2024-03-02T14:43:55;1.55;;;0.70;;
21681;SDS011;11002;48.256;10.084;2024-03-02T14:46:22;2.20;;;0.60;;